< < Back
Terminal Aerodrome Forecast


Current Version              Previous Versions:   1  2  3  4  5  6  7  8  9  

Terminal Aerodrome Forecast

019
FTUS42 KGSP 241100
TAFCLT
TAF
KCLT 241120Z 2412/2512 06006KT P6SM FEW250
     FM241700 16006KT P6SM FEW250
     FM250600 15006KT P6SM BKN050
     FM250800 15005KT P6SM BKN015=

Latest METAR

081
SAUS70 KWBC 241100
MTRCLT
METAR KCLT 241052Z 07005KT 10SM FEW250 11/00 A3009 RMK AO2 SLP184
T01060000


USA.gov is the U.S. government's official web portal to all federal, state and local government web resources and services.